Time;durP1;ratioP1;P1;durP2;ratioP2;P2;SDS_P1;SDS_P2;PMS_P1;PMS_P2;Temp;Humidity;BMP_temperature;BMP_pressure;BME280_temperature;BME280_humidity;BME280_pressure;Samples;Min_cycle;Max_cycle;Signal;HPM_P1;HPM_P2
2022/10/24 15:52:03;;;;;;;20.75;18.60;;;;;;;13.51;100.00;99900.02;1659117;82;941625;-61
2022/10/24 15:54:30;;;;;;;17.20;15.40;;;;;;;13.44;100.00;99896.83;1648603;85;21683;-60
2022/10/24 15:56:58;;;;;;;17.57;15.63;;;;;;;13.35;100.00;99902.57;1647508;85;21501;-60
2022/10/24 15:59:25;;;;;;;15.60;13.95;;;;;;;13.36;100.00;99901.17;1658275;84;21664;-62
2022/10/24 16:01:56;;;;;;;17.05;15.25;;;;;;;13.38;100.00;99903.75;1651974;85;21903;-62
2022/10/24 16:04:23;;;;;;;14.87;13.43;;;;;;;13.35;100.00;99903.41;1653738;85;21529;-61
2022/10/24 16:06:51;;;;;;;13.80;12.40;;;;;;;13.29;100.00;99915.58;1630003;87;21529;-61
2022/10/24 16:09:22;;;;;;;14.68;13.15;;;;;;;13.22;100.00;99915.48;1614589;88;21530;-62
2022/10/24 16:11:48;;;;;;;18.32;14.18;;;;;;;13.17;100.00;99914.41;1645832;84;21582;-61
2022/10/24 16:14:17;;;;;;;14.03;11.83;;;;;;;13.17;100.00;99913.09;1644047;85;21803;-61
2022/10/24 16:16:44;;;;;;;14.50;11.63;;;;;;;13.18;100.00;99912.61;1657293;85;21545;-60
2022/10/24 16:19:12;;;;;;;14.28;10.82;;;;;;;13.24;100.00;99914.95;1637426;86;21529;-62
2022/10/24 16:21:40;;;;;;;17.35;11.22;;;;;;;13.28;100.00;99922.25;1682121;83;21023;-63
2022/10/24 16:24:08;;;;;;;12.20;11.10;;;;;;;13.30;100.00;99917.34;1651892;86;21464;-63
2022/10/24 16:26:35;;;;;;;11.53;10.30;;;;;;;13.32;100.00;99911.98;1652107;85;21761;-63
2022/10/24 16:29:03;;;;;;;21.20;14.85;;;;;;;13.31;100.00;99904.98;1670500;83;26060;-63
2022/10/24 16:31:31;;;;;;;20.97;14.18;;;;;;;13.32;100.00;99898.78;1668252;83;21524;-63
2022/10/24 16:33:57;;;;;;;18.62;12.82;;;;;;;13.33;100.00;99890.76;1668033;83;21585;-63
2022/10/24 16:36:24;;;;;;;14.25;12.75;;;;;;;13.32;100.00;99892.18;1675262;83;21510;-62
2022/10/24 16:38:51;;;;;;;13.20;11.80;;;;;;;13.35;100.00;99890.20;1658496;86;21833;-62
2022/10/24 16:41:21;;;;;;;12.40;11.10;;;;;;;13.35;100.00;99895.49;1651772;85;21596;-62
2022/10/24 16:43:47;;;;;;;15.10;11.35;;;;;;;13.30;100.00;99892.66;1647842;86;21521;-62
2022/10/24 16:46:16;;;;;;;16.73;12.10;;;;;;;13.23;100.00;99897.41;1676416;84;21433;-62
2022/10/24 16:48:43;;;;;;;15.60;12.43;;;;;;;13.16;100.00;99898.64;1678649;85;21462;-62
2022/10/24 16:51:18;;;;;;;15.20;11.15;;;;;;;13.12;100.00;99897.94;1678630;84;21878;-62
2022/10/24 16:53:45;;;;;;;17.98;13.72;;;;;;;13.15;100.00;99911.47;1654775;84;21076;-63
2022/10/24 16:56:12;;;;;;;18.87;14.13;;;;;;;13.23;100.00;99913.25;1649910;86;20986;-63
2022/10/24 16:58:40;;;;;;;19.70;14.78;;;;;;;13.27;100.00;99906.88;1659047;84;21450;-60
2022/10/24 17:01:09;;;;;;;23.07;16.20;;;;;;;13.26;100.00;99899.91;1664091;83;21072;-62
2022/10/24 17:03:38;;;;;;;19.55;16.20;;;;;;;13.24;100.00;99909.22;1652851;85;21576;-61
2022/10/24 17:06:06;;;;;;;21.90;16.48;;;;;;;13.19;100.00;99912.55;1655809;85;21671;-63
2022/10/24 17:08:33;;;;;;;22.25;17.12;;;;;;;13.12;100.00;99913.77;1653996;83;21474;-63
2022/10/24 17:11:00;;;;;;;21.52;15.93;;;;;;;13.08;100.00;99918.81;1624168;87;21441;-62
2022/10/24 17:13:28;;;;;;;19.92;15.50;;;;;;;13.07;100.00;99905.22;1649393;84;21706;-62
2022/10/24 17:15:56;;;;;;;17.50;14.85;;;;;;;13.13;100.00;99912.86;1671039;83;21518;-62
2022/10/24 17:18:25;;;;;;;24.57;16.45;;;;;;;13.10;100.00;99922.70;1662677;83;21561;-64
2022/10/24 17:20:59;;;;;;;21.90;14.78;;;;;;;13.12;100.00;99926.97;1665413;85;21587;-61
2022/10/24 17:23:25;;;;;;;20.50;15.08;;;;;;;13.14;100.00;99925.11;1666157;83;21635;-61
2022/10/24 17:25:53;;;;;;;17.82;14.40;;;;;;;13.12;100.00;99926.97;1647431;85;21129;-62
2022/10/24 17:28:19;;;;;;;17.92;14.23;;;;;;;13.14;100.00;99922.94;1660705;84;21770;-60
2022/10/24 17:30:46;;;;;;;14.87;13.33;;;;;;;13.10;100.00;99918.27;1669479;84;21002;-60
2022/10/24 17:33:13;;;;;;;18.27;13.25;;;;;;;13.09;100.00;99917.02;1670559;84;21443;-61
2022/10/24 17:35:50;;;;;;;14.55;12.93;;;;;;;13.12;100.00;99908.97;1676094;83;21592;-61
2022/10/24 17:38:54;;;;;;;15.23;13.38;;;;;;;13.15;100.00;99906.19;1702250;82;21500;-60
2022/10/24 17:41:30;;;;;;;19.12;14.30;;;;;;;13.15;100.00;99903.55;1668660;85;21870;-60
2022/10/24 17:43:57;;;;;;;16.95;14.18;;;;;;;13.10;100.00;99908.19;1646682;84;21520;-60
2022/10/24 17:46:24;;;;;;;16.03;14.17;;;;;;;13.12;100.00;99901.89;1693995;84;21553;-61
2022/10/24 17:48:53;;;;;;;14.00;12.63;;;;;;;13.12;100.00;99891.33;1665587;84;21471;-61
2022/10/24 17:51:21;;;;;;;15.72;13.70;;;;;;;13.07;100.00;99885.41;1665530;85;20967;-61
2022/10/24 17:53:48;;;;;;;16.15;13.50;;;;;;;13.00;100.00;99887.99;1665788;83;22056;-60
2022/10/24 17:56:15;;;;;;;15.28;13.68;;;;;;;12.97;100.00;99889.45;1665595;85;21475;-60
2022/10/24 17:58:42;;;;;;;16.37;12.70;;;;;;;12.96;100.00;99896.52;1665352;85;21549;-60
2022/10/24 18:01:10;;;;;;;14.10;12.68;;;;;;;12.99;100.00;99893.71;1663663;83;21273;-60
2022/10/24 18:03:37;;;;;;;14.25;12.73;;;;;;;12.99;100.00;99895.50;1653912;84;21061;-60
2022/10/24 18:06:06;;;;;;;15.50;12.23;;;;;;;12.94;100.00;99886.95;1673035;84;21823;-61
2022/10/24 18:08:34;;;;;;;15.53;13.28;;;;;;;12.88;100.00;99889.42;1658582;84;21443;-60
2022/10/24 18:11:03;;;;;;;16.45;14.65;;;;;;;12.83;100.00;99885.70;1656750;84;21506;-60
2022/10/24 18:13:35;;;;;;;17.55;14.55;;;;;;;12.51;100.00;99833.17;1656811;85;21465;-60
2022/10/24 18:16:09;;;;;;;15.80;12.80;;;;;;;12.75;100.00;99881.27;1660720;84;21624;-60
2022/10/24 18:18:38;;;;;;;17.80;14.93;;;;;;;12.70;100.00;99872.71;1658196;84;21890;-60
2022/10/24 18:21:12;;;;;;;15.48;13.88;;;;;;;12.73;100.00;99873.02;1657409;84;21580;-60
2022/10/24 18:23:38;;;;;;;16.62;13.93;;;;;;;12.73;100.00;99879.61;1658623;83;21666;-60
2022/10/24 18:26:08;;;;;;;14.68;13.13;;;;;;;12.74;100.00;99867.67;1657402;84;21593;-60
2022/10/24 18:28:40;;;;;;;16.67;13.68;;;;;;;12.72;100.00;99869.53;1660220;84;21629;-60
2022/10/24 18:31:09;;;;;;;16.70;13.28;;;;;;;12.69;100.00;99863.07;1660465;84;21592;-60
2022/10/24 18:33:36;;;;;;;15.03;13.20;;;;;;;12.70;100.00;99862.63;1664315;84;21572;-60
2022/10/24 18:36:12;;;;;;;17.10;11.83;;;;;;;12.74;100.00;99862.39;1659943;84;21474;-59
2022/10/24 18:38:40;;;;;;;14.33;12.78;;;;;;;12.81;100.00;99860.33;1657013;84;21561;-60
2022/10/24 18:41:34;;;;;;;14.47;11.07;;;;;;;12.84;100.00;99857.05;1657277;84;21018;-60
2022/10/24 18:44:06;;;;;;;13.25;11.75;;;;;;;12.84;100.00;99852.24;1631253;86;21819;-60
2022/10/24 18:46:35;;;;;;;12.88;11.60;;;;;;;12.84;100.00;99853.56;1643998;84;21458;-60
2022/10/24 18:49:02;;;;;;;13.15;11.40;;;;;;;12.79;100.00;99848.97;1657929;84;21443;-61
2022/10/24 18:51:39;;;;;;;13.70;10.30;;;;;;;12.78;100.00;99851.23;1657799;85;21538;-61
2022/10/24 18:54:10;;;;;;;10.78;9.68;;;;;;;12.76;100.00;99849.98;1658165;84;21023;-60
2022/10/24 18:56:37;;;;;;;12.28;10.75;;;;;;;12.76;100.00;99851.30;1629628;84;21863;-60
2022/10/24 18:59:20;;;;;;;12.07;10.78;;;;;;;12.80;100.00;99854.64;1657819;84;21944;-61
2022/10/24 19:02:19;;;;;;;12.33;10.82;;;;;;;12.82;100.00;99860.23;1659532;84;21065;-61
2022/10/24 19:04:49;;;;;;;14.28;11.05;;;;;;;12.79;100.00;99856.87;1658765;83;21623;-61
2022/10/24 19:07:17;;;;;;;14.07;11.48;;;;;;;12.71;100.00;99853.30;1651988;84;21109;-61
2022/10/24 19:09:44;;;;;;;13.45;11.45;;;;;;;12.71;100.00;99855.94;1655148;86;21813;-61
2022/10/24 19:12:11;;;;;;;13.38;11.90;;;;;;;12.69;100.00;99852.99;1656347;84;21517;-61
2022/10/24 19:14:39;;;;;;;13.27;11.87;;;;;;;12.63;100.00;99839.63;1659785;84;21505;-60
2022/10/24 19:17:06;;;;;;;12.63;11.33;;;;;;;12.64;100.00;99854.55;1658275;84;21609;-60
2022/10/24 19:19:35;;;;;;;13.55;10.75;;;;;;;12.67;100.00;99851.73;1656587;84;21511;-60
2022/10/24 19:22:02;;;;;;;;;;;;;;;12.68;100.00;99852.59;1656653;86;21903;-61
2022/10/24 19:24:28;;;;;;;13.00;10.45;;;;;;;12.53;100.00;99855.05;1654120;85;20163;-61
2022/10/24 19:26:55;;;;;;;12.88;11.57;;;;;;;12.55;100.00;99860.26;1651065;84;21664;-61
2022/10/24 19:29:22;;;;;;;14.07;11.60;;;;;;;12.52;100.00;99865.19;1654073;85;21451;-60
2022/10/24 19:31:48;;;;;;;12.95;11.48;;;;;;;12.45;100.00;99869.04;1654171;86;21629;-59
2022/10/24 19:34:15;;;;;;;11.20;10.13;;;;;;;12.44;100.00;99864.71;1654218;85;22000;-61
2022/10/24 19:36:41;;;;;;;16.12;10.48;;;;;;;12.43;100.00;99875.73;1662446;84;21591;-61
2022/10/24 19:39:08;;;;;;;11.18;9.70;;;;;;;12.43;100.00;99872.22;1677165;83;21506;-60
2022/10/24 19:41:35;;;;;;;12.43;10.48;;;;;;;12.43;100.00;99882.32;1689157;83;21576;-60
2022/10/24 19:44:03;;;;;;;14.87;11.08;;;;;;;12.43;100.00;99877.05;1682315;84;21619;-60
2022/10/24 19:46:30;;;;;;;10.72;9.60;;;;;;;12.41;100.00;99878.91;1662019;83;27007;-62
2022/10/24 19:48:56;;;;;;;16.07;11.10;;;;;;;12.37;100.00;99874.67;1661139;84;21615;-60
2022/10/24 19:51:24;;;;;;;11.65;10.45;;;;;;;12.37;100.00;99874.67;1663044;84;21485;-62
2022/10/24 19:53:51;;;;;;;11.53;10.38;;;;;;;12.36;100.00;99873.45;1659577;84;21457;-61
2022/10/24 19:56:23;;;;;;;11.48;10.38;;;;;;;12.39;100.00;99872.82;1675183;84;21652;-61
2022/10/24 19:58:50;;;;;;;11.48;10.30;;;;;;;12.45;100.00;99875.63;1656962;84;21839;-61
2022/10/24 20:01:19;;;;;;;14.07;10.30;;;;;;;12.46;100.00;99879.52;1677895;84;21572;-61
2022/10/24 20:03:48;;;;;;;14.87;11.48;;;;;;;12.46;100.00;99880.84;1683030;84;21501;-61
2022/10/24 20:06:15;;;;;;;12.05;10.82;;;;;;;12.46;100.00;99878.20;1662695;83;21572;-61
2022/10/24 20:08:41;;;;;;;16.02;11.33;;;;;;;12.48;100.00;99875.50;1647883;84;21459;-61
2022/10/24 20:11:09;;;;;;;11.60;10.48;;;;;;;12.51;100.00;99876.69;1657928;84;21438;-61
2022/10/24 20:13:38;;;;;;;11.55;10.35;;;;;;;12.53;100.00;99872.66;1660092;84;21490;-60
2022/10/24 20:16:05;;;;;;;13.10;11.70;;;;;;;12.57;100.00;99872.44;1657882;86;21612;-60
2022/10/24 20:18:33;;;;;;;15.10;12.63;;;;;;;12.58;100.00;99869.32;1661015;84;21635;-60
2022/10/24 20:21:03;;;;;;;17.85;12.15;;;;;;;12.50;100.00;99873.64;1658423;84;21508;-63
2022/10/24 20:23:29;;;;;;;15.83;12.47;;;;;;;12.46;100.00;99875.56;1659017;84;21605;-59
2022/10/24 20:26:00;;;;;;;14.25;11.78;;;;;;;12.41;100.00;99876.70;1658155;86;21530;-58
2022/10/24 20:28:27;;;;;;;13.00;11.60;;;;;;;12.42;100.00;99876.64;1657707;84;21569;-60
2022/10/24 20:30:53;;;;;;;13.22;11.85;;;;;;;12.49;100.00;99878.98;1658166;84;21563;-60
2022/10/24 20:33:20;;;;;;;14.75;13.00;;;;;;;12.52;100.00;99876.22;1660813;84;21029;-60
2022/10/24 20:35:47;;;;;;;18.00;13.85;;;;;;;12.60;100.00;99884.61;1657949;84;21945;-61
2022/10/24 20:38:13;;;;;;;15.28;13.43;;;;;;;12.62;100.00;99880.11;1656649;86;21494;-61
2022/10/24 20:40:40;;;;;;;14.30;12.82;;;;;;;12.64;100.00;99877.81;1657014;86;21450;-60
2022/10/24 20:43:08;;;;;;;14.70;13.28;;;;;;;12.65;100.00;99874.23;1663355;84;21573;-60
2022/10/24 20:45:39;;;;;;;16.30;13.13;;;;;;;12.65;100.00;99876.87;1656582;84;20963;-60
2022/10/24 20:48:06;;;;;;;16.65;14.00;;;;;;;12.67;100.00;99870.20;1656819;85;21789;-60
2022/10/24 20:50:35;;;;;;;16.85;13.03;;;;;;;12.75;100.00;99868.52;1658755;84;21434;-60
2022/10/24 20:53:02;;;;;;;16.82;14.30;;;;;;;12.81;100.00;99870.41;1657594;84;21454;-60
2022/10/24 20:55:29;;;;;;;18.30;14.45;;;;;;;12.84;100.00;99866.76;1657802;86;21018;-59
2022/10/24 20:57:56;;;;;;;17.75;13.75;;;;;;;12.81;100.00;99869.09;1658183;84;21549;-60
2022/10/24 21:00:22;;;;;;;17.48;14.00;;;;;;;12.79;100.00;99864.80;1657296;84;21871;-60
2022/10/24 21:02:52;;;;;;;16.10;14.47;;;;;;;12.79;100.00;99861.72;1656623;86;21537;-60
2022/10/24 21:05:19;;;;;;;17.40;14.53;;;;;;;12.83;100.00;99860.63;1656722;85;21509;-60
2022/10/24 21:07:49;;;;;;;16.20;13.93;;;;;;;12.88;100.00;99860.87;1657204;86;21549;-60
2022/10/24 21:10:17;;;;;;;15.05;13.45;;;;;;;12.92;100.00;99862.42;1657202;84;21587;-59
2022/10/24 21:12:45;;;;;;;17.27;14.23;;;;;;;12.93;100.00;99851.80;1656928;84;21565;-60
2022/10/24 21:15:12;;;;;;;17.05;13.68;;;;;;;12.90;100.00;99851.94;1657080;86;20987;-60
2022/10/24 21:17:39;;;;;;;15.68;14.07;;;;;;;12.90;100.00;99854.58;1658334;84;21559;-59
2022/10/24 21:20:09;;;;;;;16.80;14.35;;;;;;;12.87;100.00;99848.62;1664561;84;21480;-60
2022/10/24 21:22:35;;;;;;;;;;;;;;;12.93;100.00;99852.27;1666701;84;21517;-61
2022/10/24 21:25:02;;;;;;;15.65;13.40;;;;;;;12.93;100.00;99853.59;1650172;85;20798;-59
2022/10/24 21:27:29;;;;;;;17.30;14.20;;;;;;;13.02;100.00;99853.98;1636128;85;21116;-61
2022/10/24 21:29:56;;;;;;;17.77;14.58;;;;;;;13.10;100.00;99848.80;1610183;86;29047;-60
2022/10/24 21:32:23;;;;;;;16.17;14.40;;;;;;;13.15;100.00;99842.35;1665433;85;21486;-60
2022/10/24 21:34:50;;;;;;;16.75;14.47;;;;;;;13.17;100.00;99839.17;1663290;85;21491;-60
2022/10/24 21:37:17;;;;;;;16.70;15.03;;;;;;;13.19;100.00;99835.13;1651134;86;21891;-60
2022/10/24 21:39:43;;;;;;;17.00;14.93;;;;;;;13.12;100.00;99829.77;1641041;85;21478;-60
2022/10/24 21:42:10;;;;;;;16.87;13.65;;;;;;;13.17;100.00;99831.72;1622474;88;21506;-60
2022/10/24 21:44:36;;;;;;;17.35;14.30;;;;;;;13.19;100.00;99825.42;1628336;84;21526;-59
2022/10/24 21:47:03;;;;;;;18.80;14.50;;;;;;;13.28;100.00;99834.67;1655873;84;21583;-60
2022/10/24 21:49:29;;;;;;;16.48;14.68;;;;;;;13.34;100.00;99829.58;1624477;86;21933;-60
2022/10/24 21:51:56;;;;;;;18.40;15.72;;;;;;;13.34;100.00;99826.94;1647956;84;21581;-59
2022/10/24 21:54:23;;;;;;;16.25;14.63;;;;;;;13.33;100.00;99829.17;1650862;86;21002;-60
2022/10/24 21:56:50;;;;;;;20.55;16.12;;;;;;;13.28;100.00;99825.87;1650902;86;21442;-60
2022/10/24 21:59:18;;;;;;;15.60;13.93;;;;;;;13.21;100.00;99822.23;1650336;85;21499;-60
2022/10/24 22:01:46;;;;;;;16.67;14.38;;;;;;;13.19;100.00;99827.22;1633391;86;21764;-60
2022/10/24 22:04:13;;;;;;;17.35;14.20;;;;;;;13.22;100.00;99840.24;1622895;88;21455;-60
2022/10/24 22:06:42;;;;;;;17.45;14.07;;;;;;;13.22;100.00;99838.48;1622677;86;20975;-60
2022/10/24 22:09:12;;;;;;;18.70;14.93;;;;;;;13.25;100.00;99836.98;1650900;84;21478;-61
2022/10/24 22:11:39;;;;;;;17.20;15.40;;;;;;;13.28;100.00;99825.87;1640659;86;21435;-60
2022/10/24 22:14:05;;;;;;;18.27;14.98;;;;;;;13.24;100.00;99821.21;1622941;88;21502;-59
2022/10/24 22:16:33;;;;;;;16.17;14.47;;;;;;;13.18;100.00;99817.57;1622980;86;21577;-59
2022/10/24 22:19:01;;;;;;;18.67;14.97;;;;;;;13.17;100.00;99819.84;1637124;86;21693;-59
2022/10/24 22:21:37;;;;;;;15.70;14.05;;;;;;;13.19;100.00;99829.38;1638825;85;21030;-59
2022/10/24 22:24:13;;;;;;;16.65;13.98;;;;;;;13.18;100.00;99828.13;1643446;83;21586;-60
2022/10/24 22:26:41;;;;;;;15.65;14.10;;;;;;;13.22;100.00;99825.72;1665547;85;21442;-60
2022/10/24 22:29:10;;;;;;;17.20;15.13;;;;;;;13.22;100.00;99822.64;1665866;85;21459;-59
2022/10/24 22:31:37;;;;;;;18.85;15.60;;;;;;;13.16;100.00;99822.08;1665619;85;21472;-59
2022/10/24 22:34:04;;;;;;;16.73;14.73;;;;;;;13.10;100.00;99830.31;1640609;85;21565;-59
2022/10/24 22:37:11;;;;;;;17.45;14.90;;;;;;;13.08;100.00;99826.42;1636966;86;21069;-59
2022/10/24 22:39:39;;;;;;;19.92;14.33;;;;;;;13.14;100.00;99831.39;1637091;87;21427;-59
2022/10/24 22:42:08;;;;;;;17.48;14.73;;;;;;;13.18;100.00;99825.02;1652670;83;21451;-60
2022/10/24 22:44:35;;;;;;;17.02;14.33;;;;;;;13.23;100.00;99827.44;1641289;85;21653;-59
2022/10/24 22:47:30;;;;;;;19.87;15.72;;;;;;;13.25;100.00;99821.61;1636812;86;21547;-59
2022/10/24 22:50:22;;;;;;;15.85;14.25;;;;;;;13.28;100.00;99815.31;1636857;87;21585;-59
2022/10/24 22:52:49;;;;;;;15.85;14.25;;;;;;;13.22;100.00;99811.20;1652333;84;21879;-59
2022/10/24 22:55:37;;;;;;;17.48;14.73;;;;;;;13.22;100.00;99810.75;1663551;85;21522;-59
2022/10/24 22:58:05;;;;;;;16.35;14.60;;;;;;;13.23;100.00;99823.00;1665862;83;21614;-60
2022/10/24 23:00:32;;;;;;;17.63;14.77;;;;;;;13.30;100.00;99814.77;1665678;85;21566;-59
2022/10/24 23:03:16;;;;;;;18.80;14.73;;;;;;;13.29;100.00;99810.43;1665847;85;21071;-59
2022/10/24 23:05:48;;;;;;;18.32;15.15;;;;;;;13.25;100.00;99811.05;1643328;85;21958;-59
2022/10/24 23:08:23;;;;;;;15.50;13.98;;;;;;;13.16;100.00;99805.77;1602378;85;20971;-59
2022/10/24 23:10:50;;;;;;;18.48;14.85;;;;;;;13.15;100.00;99809.83;1665335;85;21507;-59
2022/10/24 23:13:17;;;;;;;15.33;13.73;;;;;;;13.24;100.00;99810.65;1665704;85;21526;-59
2022/10/24 23:15:44;;;;;;;18.50;14.15;;;;;;;13.32;100.00;99811.16;1663946;83;22228;-59
2022/10/24 23:18:12;;;;;;;16.37;14.65;;;;;;;13.40;100.00;99802.37;1665033;85;21911;-60
2022/10/24 23:20:42;;;;;;;17.03;15.17;;;;;;;13.44;100.00;99805.70;1665750;85;20970;-60
2022/10/24 23:23:15;;;;;;;15.68;14.15;;;;;;;13.43;100.00;99806.66;1665475;85;22078;-59
2022/10/24 23:25:44;;;;;;;16.15;14.55;;;;;;;13.42;100.00;99807.58;1662467;85;21510;-59
2022/10/24 23:28:20;;;;;;;16.67;14.68;;;;;;;13.37;100.00;99801.67;1646844;85;20983;-60
2022/10/24 23:30:47;;;;;;;18.82;14.05;;;;;;;13.38;100.00;99798.11;1636912;87;21821;-59
2022/10/24 23:33:26;;;;;;;18.50;14.47;;;;;;;13.43;100.00;99802.70;1650777;83;21515;-61
2022/10/24 23:35:56;;;;;;;20.88;15.00;;;;;;;13.45;100.00;99802.14;1645733;85;21517;-59
2022/10/24 23:38:24;;;;;;;15.55;13.98;;;;;;;13.42;100.00;99801.81;1665350;85;21488;-59
2022/10/24 23:40:51;;;;;;;16.10;14.43;;;;;;;13.40;100.00;99808.13;1665462;85;20990;-59
2022/10/24 23:43:19;;;;;;;16.73;14.90;;;;;;;13.35;100.00;99803.06;1665578;85;21906;-59
2022/10/24 23:46:12;;;;;;;16.30;14.60;;;;;;;13.30;100.00;99798.52;1665336;85;21514;-59
2022/10/24 23:49:08;;;;;;;17.62;14.78;;;;;;;13.31;100.00;99796.71;1647209;84;21089;-59
2022/10/24 23:51:59;;;;;;;18.05;14.23;;;;;;;13.34;100.00;99801.84;1649500;86;21707;-59
2022/10/24 23:54:30;;;;;;;17.23;15.18;;;;;;;13.40;100.00;99794.92;1616086;87;21573;-59
2022/10/24 23:56:57;;;;;;;17.05;14.63;;;;;;;13.37;100.00;99791.11;1616436;86;21850;-59
2022/10/24 23:59:23;;;;;;;18.43;15.60;;;;;;;13.30;100.00;99789.27;1624137;87;21449;-59
